sensor_id;sensor_type;location;lat;lon;timestamp;pressure;altitude;pressure_sealevel;temperature;humidity
21623;BME280;10973;46.706;12.340;2023-11-19T00:00:07;87661.06;;;2.14;53.24
21623;BME280;10973;46.706;12.340;2023-11-19T00:02:35;87644.41;;;2.15;53.39
21623;BME280;10973;46.706;12.340;2023-11-19T00:05:02;87648.34;;;2.21;52.97
21623;BME280;10973;46.706;12.340;2023-11-19T00:07:30;87644.97;;;2.21;53.17
21623;BME280;10973;46.706;12.340;2023-11-19T00:10:02;87661.22;;;2.17;53.14
21623;BME280;10973;46.706;12.340;2023-11-19T00:12:30;87654.19;;;2.18;52.69
21623;BME280;10973;46.706;12.340;2023-11-19T00:14:57;87650.81;;;2.17;53.14
21623;BME280;10973;46.706;12.340;2023-11-19T00:17:24;87651.44;;;2.14;53.48
21623;BME280;10973;46.706;12.340;2023-11-19T00:19:52;87647.91;;;2.19;53.25
21623;BME280;10973;46.706;12.340;2023-11-19T00:22:19;87646.84;;;2.20;53.12
21623;BME280;10973;46.706;12.340;2023-11-19T00:24:47;87639.03;;;2.20;53.13
21623;BME280;10973;46.706;12.340;2023-11-19T00:27:14;87635.34;;;2.21;52.95
21623;BME280;10973;46.706;12.340;2023-11-19T00:29:42;87630.91;;;2.22;52.70
21623;BME280;10973;46.706;12.340;2023-11-19T00:32:09;87618.53;;;2.18;53.01
21623;BME280;10973;46.706;12.340;2023-11-19T00:34:37;87627.25;;;2.23;52.86
21623;BME280;10973;46.706;12.340;2023-11-19T00:37:05;87619.47;;;2.23;52.94
21623;BME280;10973;46.706;12.340;2023-11-19T00:39:33;87618.03;;;2.25;52.53
21623;BME280;10973;46.706;12.340;2023-11-19T00:42:00;87620.63;;;2.25;52.72
21623;BME280;10973;46.706;12.340;2023-11-19T00:44:27;87618.50;;;2.27;52.23
21623;BME280;10973;46.706;12.340;2023-11-19T00:46:55;87616.22;;;2.26;52.47
21623;BME280;10973;46.706;12.340;2023-11-19T00:49:23;87609.78;;;2.23;52.55
21623;BME280;10973;46.706;12.340;2023-11-19T00:51:50;87609.72;;;2.11;53.02
21623;BME280;10973;46.706;12.340;2023-11-19T00:54:18;87601.00;;;2.15;52.41
21623;BME280;10973;46.706;12.340;2023-11-19T00:56:45;87601.72;;;2.16;52.68
21623;BME280;10973;46.706;12.340;2023-11-19T00:59:13;87594.69;;;2.16;52.81
21623;BME280;10973;46.706;12.340;2023-11-19T01:01:41;87600.50;;;2.22;52.55
21623;BME280;10973;46.706;12.340;2023-11-19T01:04:08;87606.91;;;2.25;52.44
21623;BME280;10973;46.706;12.340;2023-11-19T01:06:36;87611.78;;;2.26;52.27
21623;BME280;10973;46.706;12.340;2023-11-19T01:09:15;87598.06;;;2.17;52.42
21623;BME280;10973;46.706;12.340;2023-11-19T01:11:43;87590.53;;;2.24;52.53
21623;BME280;10973;46.706;12.340;2023-11-19T01:14:10;87598.34;;;2.24;52.54
21623;BME280;10973;46.706;12.340;2023-11-19T01:16:37;87587.16;;;2.24;51.86
21623;BME280;10973;46.706;12.340;2023-11-19T01:19:05;87592.81;;;2.26;52.21
21623;BME280;10973;46.706;12.340;2023-11-19T01:21:44;87599.53;;;2.27;52.30
21623;BME280;10973;46.706;12.340;2023-11-19T01:24:11;87583.06;;;2.23;52.04
21623;BME280;10973;46.706;12.340;2023-11-19T01:26:38;87568.97;;;2.24;52.40
21623;BME280;10973;46.706;12.340;2023-11-19T01:29:06;87575.13;;;2.19;52.62
21623;BME280;10973;46.706;12.340;2023-11-19T01:31:33;87573.47;;;2.14;52.50
21623;BME280;10973;46.706;12.340;2023-11-19T01:34:01;87568.72;;;2.16;52.27
21623;BME280;10973;46.706;12.340;2023-11-19T01:36:29;87572.84;;;2.17;52.13
21623;BME280;10973;46.706;12.340;2023-11-19T01:38:56;87568.84;;;2.20;52.15
21623;BME280;10973;46.706;12.340;2023-11-19T01:41:24;87567.13;;;2.24;51.83
21623;BME280;10973;46.706;12.340;2023-11-19T01:43:51;87562.69;;;2.25;51.63
21623;BME280;10973;46.706;12.340;2023-11-19T01:46:19;87564.66;;;2.28;52.21
21623;BME280;10973;46.706;12.340;2023-11-19T01:48:47;87556.28;;;2.22;51.96
21623;BME280;10973;46.706;12.340;2023-11-19T01:51:16;87552.16;;;2.21;52.23
21623;BME280;10973;46.706;12.340;2023-11-19T01:53:44;87543.41;;;2.26;51.89
21623;BME280;10973;46.706;12.340;2023-11-19T01:56:14;87538.53;;;2.24;52.04
21623;BME280;10973;46.706;12.340;2023-11-19T01:58:44;87538.53;;;2.24;52.01
21623;BME280;10973;46.706;12.340;2023-11-19T02:01:14;87536.38;;;2.26;51.88
21623;BME280;10973;46.706;12.340;2023-11-19T02:03:42;87542.16;;;2.32;51.80
21623;BME280;10973;46.706;12.340;2023-11-19T02:06:10;87541.41;;;2.31;51.93
21623;BME280;10973;46.706;12.340;2023-11-19T02:08:38;87529.03;;;2.28;52.00
21623;BME280;10973;46.706;12.340;2023-11-19T02:11:06;87505.09;;;2.35;51.70
21623;BME280;10973;46.706;12.340;2023-11-19T02:13:33;87511.19;;;2.39;51.65
21623;BME280;10973;46.706;12.340;2023-11-19T02:16:01;87508.16;;;2.37;51.90
21623;BME280;10973;46.706;12.340;2023-11-19T02:18:29;87521.47;;;2.35;51.89
21623;BME280;10973;46.706;12.340;2023-11-19T02:20:58;87499.13;;;2.34;51.92
21623;BME280;10973;46.706;12.340;2023-11-19T02:23:30;87486.47;;;2.33;51.98
21623;BME280;10973;46.706;12.340;2023-11-19T02:26:26;87471.44;;;2.38;51.83
21623;BME280;10973;46.706;12.340;2023-11-19T02:28:56;87468.06;;;2.38;52.04
21623;BME280;10973;46.706;12.340;2023-11-19T02:31:23;87474.03;;;2.38;51.71
21623;BME280;10973;46.706;12.340;2023-11-19T02:33:51;87473.72;;;2.40;52.05
21623;BME280;10973;46.706;12.340;2023-11-19T02:36:19;87462.25;;;2.41;52.03
21623;BME280;10973;46.706;12.340;2023-11-19T02:38:46;87460.81;;;2.43;51.80
21623;BME280;10973;46.706;12.340;2023-11-19T02:41:14;87470.78;;;2.41;52.07
21623;BME280;10973;46.706;12.340;2023-11-19T02:43:42;87476.78;;;2.21;52.21
21623;BME280;10973;46.706;12.340;2023-11-19T02:46:10;87458.31;;;2.14;52.50
21623;BME280;10973;46.706;12.340;2023-11-19T02:48:40;87464.53;;;2.22;52.45
21623;BME280;10973;46.706;12.340;2023-11-19T02:51:08;87463.91;;;2.25;52.60
21623;BME280;10973;46.706;12.340;2023-11-19T02:53:36;87469.22;;;2.28;52.24
21623;BME280;10973;46.706;12.340;2023-11-19T02:56:04;87473.66;;;2.28;52.63
21623;BME280;10973;46.706;12.340;2023-11-19T02:58:32;87462.28;;;2.20;53.09
21623;BME280;10973;46.706;12.340;2023-11-19T03:00:59;87455.47;;;2.28;52.82
21623;BME280;10973;46.706;12.340;2023-11-19T03:03:28;87459.69;;;2.32;53.11
21623;BME280;10973;46.706;12.340;2023-11-19T03:05:57;87454.63;;;2.36;53.30
21623;BME280;10973;46.706;12.340;2023-11-19T03:08:24;87453.09;;;2.35;53.31
21623;BME280;10973;46.706;12.340;2023-11-19T03:10:52;87443.16;;;2.37;53.20
21623;BME280;10973;46.706;12.340;2023-11-19T03:13:19;87434.59;;;2.36;52.82
21623;BME280;10973;46.706;12.340;2023-11-19T03:15:47;87431.78;;;2.41;52.90
21623;BME280;10973;46.706;12.340;2023-11-19T03:18:14;87433.75;;;2.44;52.97
21623;BME280;10973;46.706;12.340;2023-11-19T03:20:42;87427.59;;;2.49;53.08
21623;BME280;10973;46.706;12.340;2023-11-19T03:23:09;87441.03;;;2.51;53.02
21623;BME280;10973;46.706;12.340;2023-11-19T03:25:37;87455.00;;;2.46;53.29
21623;BME280;10973;46.706;12.340;2023-11-19T03:28:06;87452.63;;;2.53;53.01
21623;BME280;10973;46.706;12.340;2023-11-19T03:30:34;87453.06;;;2.55;52.84
21623;BME280;10973;46.706;12.340;2023-11-19T03:33:02;87429.22;;;2.53;53.21
21623;BME280;10973;46.706;12.340;2023-11-19T03:35:30;87425.22;;;2.56;53.10
21623;BME280;10973;46.706;12.340;2023-11-19T03:37:58;87415.81;;;2.63;53.31
21623;BME280;10973;46.706;12.340;2023-11-19T03:40:25;87410.16;;;2.61;53.09
21623;BME280;10973;46.706;12.340;2023-11-19T03:42:54;87413.84;;;2.60;53.04
21623;BME280;10973;46.706;12.340;2023-11-19T03:45:22;87407.69;;;2.65;53.14
21623;BME280;10973;46.706;12.340;2023-11-19T03:47:51;87397.06;;;2.70;53.18
21623;BME280;10973;46.706;12.340;2023-11-19T03:50:18;87401.19;;;2.71;53.33
21623;BME280;10973;46.706;12.340;2023-11-19T03:52:47;87393.50;;;2.74;52.97
21623;BME280;10973;46.706;12.340;2023-11-19T03:55:15;87394.56;;;2.73;53.65
21623;BME280;10973;46.706;12.340;2023-11-19T03:57:42;87395.78;;;2.76;53.12
21623;BME280;10973;46.706;12.340;2023-11-19T04:00:10;87400.66;;;2.77;52.98
21623;BME280;10973;46.706;12.340;2023-11-19T04:02:39;87402.94;;;2.79;52.69
21623;BME280;10973;46.706;12.340;2023-11-19T04:05:07;87383.97;;;2.78;52.57
21623;BME280;10973;46.706;12.340;2023-11-19T04:07:35;87386.34;;;2.83;52.61
21623;BME280;10973;46.706;12.340;2023-11-19T04:10:03;87383.75;;;2.83;52.57
21623;BME280;10973;46.706;12.340;2023-11-19T04:12:30;87376.25;;;2.82;52.84
21623;BME280;10973;46.706;12.340;2023-11-19T04:14:57;87377.66;;;2.79;53.05
21623;BME280;10973;46.706;12.340;2023-11-19T04:17:28;87384.72;;;2.79;53.28
21623;BME280;10973;46.706;12.340;2023-11-19T04:19:56;87387.19;;;2.75;53.83
21623;BME280;10973;46.706;12.340;2023-11-19T04:22:23;87373.56;;;2.78;53.67
21623;BME280;10973;46.706;12.340;2023-11-19T04:24:51;87371.81;;;2.82;53.53
21623;BME280;10973;46.706;12.340;2023-11-19T04:27:19;87375.94;;;2.83;53.73
21623;BME280;10973;46.706;12.340;2023-11-19T04:29:46;87381.38;;;2.91;53.35
21623;BME280;10973;46.706;12.340;2023-11-19T04:32:14;87379.84;;;2.89;53.35
21623;BME280;10973;46.706;12.340;2023-11-19T04:34:41;87383.53;;;2.88;53.14
21623;BME280;10973;46.706;12.340;2023-11-19T04:37:09;87372.13;;;2.93;53.02
21623;BME280;10973;46.706;12.340;2023-11-19T04:39:40;87382.34;;;2.98;52.97
21623;BME280;10973;46.706;12.340;2023-11-19T04:42:08;87379.44;;;3.00;52.85
21623;BME280;10973;46.706;12.340;2023-11-19T04:44:35;87380.41;;;2.95;53.36
21623;BME280;10973;46.706;12.340;2023-11-19T04:47:06;87374.44;;;2.95;53.45
21623;BME280;10973;46.706;12.340;2023-11-19T04:49:33;87380.84;;;2.97;53.49
21623;BME280;10973;46.706;12.340;2023-11-19T04:52:01;87378.66;;;2.99;53.70
21623;BME280;10973;46.706;12.340;2023-11-19T04:54:28;87369.75;;;3.00;53.52
21623;BME280;10973;46.706;12.340;2023-11-19T04:56:55;87370.84;;;2.99;53.95
21623;BME280;10973;46.706;12.340;2023-11-19T04:59:23;87369.22;;;3.07;53.98
21623;BME280;10973;46.706;12.340;2023-11-19T05:01:50;87354.47;;;3.11;53.67
21623;BME280;10973;46.706;12.340;2023-11-19T05:04:18;87373.47;;;3.11;54.02
21623;BME280;10973;46.706;12.340;2023-11-19T05:06:45;87387.56;;;3.10;54.05
21623;BME280;10973;46.706;12.340;2023-11-19T05:09:13;87397.75;;;3.15;54.13
21623;BME280;10973;46.706;12.340;2023-11-19T05:11:40;87394.06;;;3.16;53.91
21623;BME280;10973;46.706;12.340;2023-11-19T05:14:11;87402.63;;;3.17;53.61
21623;BME280;10973;46.706;12.340;2023-11-19T05:16:42;87397.75;;;3.15;53.94
21623;BME280;10973;46.706;12.340;2023-11-19T05:19:09;87407.50;;;3.18;54.10
21623;BME280;10973;46.706;12.340;2023-11-19T05:21:37;87404.16;;;3.18;53.79
21623;BME280;10973;46.706;12.340;2023-11-19T05:24:05;87406.75;;;3.18;54.18
21623;BME280;10973;46.706;12.340;2023-11-19T05:26:32;87411.19;;;3.17;54.69
21623;BME280;10973;46.706;12.340;2023-11-19T05:29:00;87401.13;;;3.16;54.93
21623;BME280;10973;46.706;12.340;2023-11-19T05:31:27;87397.97;;;3.22;54.43
21623;BME280;10973;46.706;12.340;2023-11-19T05:33:55;87394.41;;;3.27;54.24
21623;BME280;10973;46.706;12.340;2023-11-19T05:36:22;87399.91;;;3.25;54.62
21623;BME280;10973;46.706;12.340;2023-11-19T05:38:50;87398.94;;;3.30;54.54
21623;BME280;10973;46.706;12.340;2023-11-19T05:41:17;87404.91;;;3.30;55.16
21623;BME280;10973;46.706;12.340;2023-11-19T05:43:45;87400.78;;;3.29;55.28
21623;BME280;10973;46.706;12.340;2023-11-19T05:46:12;87401.88;;;3.28;55.58
21623;BME280;10973;46.706;12.340;2023-11-19T05:48:43;87391.88;;;3.30;55.53
21623;BME280;10973;46.706;12.340;2023-11-19T05:51:11;87384.50;;;3.32;55.83
21623;BME280;10973;46.706;12.340;2023-11-19T05:53:38;87386.03;;;3.33;55.89
21623;BME280;10973;46.706;12.340;2023-11-19T05:56:06;87390.13;;;3.34;55.87
21623;BME280;10973;46.706;12.340;2023-11-19T05:58:33;87400.34;;;3.39;56.06
21623;BME280;10973;46.706;12.340;2023-11-19T06:01:01;87402.31;;;3.42;55.50
21623;BME280;10973;46.706;12.340;2023-11-19T06:03:29;87405.00;;;3.46;55.72
21623;BME280;10973;46.706;12.340;2023-11-19T06:05:56;87406.09;;;3.45;56.04
21623;BME280;10973;46.706;12.340;2023-11-19T06:08:24;87392.09;;;3.49;55.89
21623;BME280;10973;46.706;12.340;2023-11-19T06:10:51;87392.09;;;3.49;56.15
21623;BME280;10973;46.706;12.340;2023-11-19T06:13:19;87398.81;;;3.50;56.33
21623;BME280;10973;46.706;12.340;2023-11-19T06:15:49;87388.72;;;3.49;56.71
21623;BME280;10973;46.706;12.340;2023-11-19T06:18:16;87385.13;;;3.53;56.55
21623;BME280;10973;46.706;12.340;2023-11-19T06:20:44;87387.75;;;3.53;56.98
21623;BME280;10973;46.706;12.340;2023-11-19T06:23:12;87392.94;;;3.53;57.38
21623;BME280;10973;46.706;12.340;2023-11-19T06:25:39;87394.34;;;3.51;57.63
21623;BME280;10973;46.706;12.340;2023-11-19T06:28:07;87381.44;;;3.54;57.15
21623;BME280;10973;46.706;12.340;2023-11-19T06:30:34;87382.19;;;3.55;57.63
21623;BME280;10973;46.706;12.340;2023-11-19T06:33:02;87373.38;;;3.59;58.09
21623;BME280;10973;46.706;12.340;2023-11-19T06:35:29;87383.16;;;3.63;57.91
21623;BME280;10973;46.706;12.340;2023-11-19T06:37:57;87368.72;;;3.65;58.10
21623;BME280;10973;46.706;12.340;2023-11-19T06:40:25;87380.22;;;3.64;57.90
21623;BME280;10973;46.706;12.340;2023-11-19T06:42:52;87371.31;;;3.65;58.40
21623;BME280;10973;46.706;12.340;2023-11-19T06:45:20;87368.03;;;3.68;58.33
21623;BME280;10973;46.706;12.340;2023-11-19T06:47:47;87378.94;;;3.70;58.88
21623;BME280;10973;46.706;12.340;2023-11-19T06:50:15;87371.97;;;3.74;58.39
21623;BME280;10973;46.706;12.340;2023-11-19T06:52:43;87370.19;;;3.78;58.26
21623;BME280;10973;46.706;12.340;2023-11-19T06:55:11;87378.44;;;3.80;58.37
21623;BME280;10973;46.706;12.340;2023-11-19T06:57:39;87386.19;;;3.77;58.78
21623;BME280;10973;46.706;12.340;2023-11-19T07:00:07;87396.59;;;3.77;59.59
21623;BME280;10973;46.706;12.340;2023-11-19T07:02:35;87398.09;;;3.78;59.80
21623;BME280;10973;46.706;12.340;2023-11-19T07:05:03;87398.44;;;3.76;60.40
21623;BME280;10973;46.706;12.340;2023-11-19T07:07:32;87418.72;;;3.83;59.90
21623;BME280;10973;46.706;12.340;2023-11-19T07:10:00;87412.44;;;3.84;59.89
21623;BME280;10973;46.706;12.340;2023-11-19T07:12:27;87407.88;;;3.93;59.91
21623;BME280;10973;46.706;12.340;2023-11-19T07:14:55;87422.41;;;3.94;60.12
21623;BME280;10973;46.706;12.340;2023-11-19T07:17:23;87413.50;;;3.95;60.15
21623;BME280;10973;46.706;12.340;2023-11-19T07:19:50;87419.56;;;3.99;60.53
21623;BME280;10973;46.706;12.340;2023-11-19T07:22:18;87419.66;;;4.02;60.34
21623;BME280;10973;46.706;12.340;2023-11-19T07:24:45;87425.41;;;4.08;60.46
21623;BME280;10973;46.706;12.340;2023-11-19T07:27:12;87436.25;;;4.10;60.31
21623;BME280;10973;46.706;12.340;2023-11-19T07:29:40;87428.56;;;4.13;60.37
21623;BME280;10973;46.706;12.340;2023-11-19T07:32:08;87423.97;;;4.22;60.18
21623;BME280;10973;46.706;12.340;2023-11-19T07:34:35;87425.88;;;4.25;60.27
21623;BME280;10973;46.706;12.340;2023-11-19T07:37:03;87427.50;;;4.30;60.37
21623;BME280;10973;46.706;12.340;2023-11-19T07:39:31;87425.84;;;4.38;60.25
21623;BME280;10973;46.706;12.340;2023-11-19T07:41:58;87438.25;;;4.41;60.31
21623;BME280;10973;46.706;12.340;2023-11-19T07:44:25;87438.97;;;4.41;60.40
21623;BME280;10973;46.706;12.340;2023-11-19T07:46:53;87449.59;;;4.48;60.73
21623;BME280;10973;46.706;12.340;2023-11-19T07:49:21;87451.75;;;4.58;60.58
21623;BME280;10973;46.706;12.340;2023-11-19T07:51:49;87456.22;;;4.58;60.86
21623;BME280;10973;46.706;12.340;2023-11-19T07:54:16;87457.75;;;4.59;61.02
21623;BME280;10973;46.706;12.340;2023-11-19T07:56:44;87457.06;;;4.62;61.35
21623;BME280;10973;46.706;12.340;2023-11-19T07:59:11;87449.06;;;4.70;61.07
21623;BME280;10973;46.706;12.340;2023-11-19T08:01:38;87454.06;;;4.75;61.02
21623;BME280;10973;46.706;12.340;2023-11-19T08:04:06;87458.69;;;4.82;61.20
21623;BME280;10973;46.706;12.340;2023-11-19T08:06:35;87461.84;;;4.87;60.94
21623;BME280;10973;46.706;12.340;2023-11-19T08:09:02;87460.84;;;4.92;61.29
21623;BME280;10973;46.706;12.340;2023-11-19T08:11:30;87469.16;;;4.97;61.04
21623;BME280;10973;46.706;12.340;2023-11-19T08:13:57;87473.72;;;5.00;61.16
21623;BME280;10973;46.706;12.340;2023-11-19T08:16:24;87473.06;;;5.03;61.34
21623;BME280;10973;46.706;12.340;2023-11-19T08:18:52;87475.25;;;5.01;61.48
21623;BME280;10973;46.706;12.340;2023-11-19T08:21:19;87489.59;;;5.07;61.23
21623;BME280;10973;46.706;12.340;2023-11-19T08:23:47;87479.97;;;5.12;61.25
21623;BME280;10973;46.706;12.340;2023-11-19T08:26:15;87486.06;;;5.16;61.20
21623;BME280;10973;46.706;12.340;2023-11-19T08:28:45;87479.50;;;5.22;61.38
21623;BME280;10973;46.706;12.340;2023-11-19T08:31:13;87490.03;;;5.25;61.01
21623;BME280;10973;46.706;12.340;2023-11-19T08:33:41;87499.81;;;5.28;60.78
21623;BME280;10973;46.706;12.340;2023-11-19T08:36:09;87495.44;;;5.32;60.94
21623;BME280;10973;46.706;12.340;2023-11-19T08:38:42;87504.09;;;5.36;61.12
21623;BME280;10973;46.706;12.340;2023-11-19T08:41:09;87515.75;;;5.39;61.18
21623;BME280;10973;46.706;12.340;2023-11-19T08:43:37;87511.72;;;5.41;60.94
21623;BME280;10973;46.706;12.340;2023-11-19T08:46:10;87510.69;;;5.46;60.33
21623;BME280;10973;46.706;12.340;2023-11-19T08:48:38;87498.56;;;5.38;60.88
21623;BME280;10973;46.706;12.340;2023-11-19T08:51:06;87497.97;;;5.44;60.42
21623;BME280;10973;46.706;12.340;2023-11-19T08:53:34;87489.91;;;5.49;60.29
21623;BME280;10973;46.706;12.340;2023-11-19T08:56:02;87472.84;;;5.55;60.49
21623;BME280;10973;46.706;12.340;2023-11-19T08:58:29;87466.38;;;5.65;60.16
21623;BME280;10973;46.706;12.340;2023-11-19T09:00:57;87462.72;;;5.69;59.75
21623;BME280;10973;46.706;12.340;2023-11-19T09:03:24;87467.38;;;5.76;58.98
21623;BME280;10973;46.706;12.340;2023-11-19T09:05:53;87477.16;;;5.79;58.07
21623;BME280;10973;46.706;12.340;2023-11-19T09:08:20;87459.78;;;5.87;57.66
21623;BME280;10973;46.706;12.340;2023-11-19T09:10:48;87452.59;;;5.84;55.89
21623;BME280;10973;46.706;12.340;2023-11-19T09:13:15;87466.25;;;5.77;55.84
21623;BME280;10973;46.706;12.340;2023-11-19T09:15:45;87471.06;;;5.91;56.25
21623;BME280;10973;46.706;12.340;2023-11-19T09:18:16;87467.44;;;5.95;56.29
21623;BME280;10973;46.706;12.340;2023-11-19T09:20:44;87453.69;;;5.98;55.61
21623;BME280;10973;46.706;12.340;2023-11-19T09:23:14;87453.34;;;6.00;55.43
21623;BME280;10973;46.706;12.340;2023-11-19T09:25:41;87450.47;;;6.05;54.91
21623;BME280;10973;46.706;12.340;2023-11-19T09:28:12;87450.19;;;6.10;55.73
21623;BME280;10973;46.706;12.340;2023-11-19T09:30:39;87450.19;;;6.10;55.60
21623;BME280;10973;46.706;12.340;2023-11-19T09:33:07;87447.59;;;6.10;54.44
21623;BME280;10973;46.706;12.340;2023-11-19T09:35:34;87448.00;;;6.12;54.51
21623;BME280;10973;46.706;12.340;2023-11-19T09:38:02;87436.09;;;6.14;54.65
21623;BME280;10973;46.706;12.340;2023-11-19T09:40:34;87435.06;;;6.19;54.34
21623;BME280;10973;46.706;12.340;2023-11-19T09:43:02;87434.03;;;6.23;53.54
21623;BME280;10973;46.706;12.340;2023-11-19T09:45:44;87443.22;;;6.33;53.22
21623;BME280;10973;46.706;12.340;2023-11-19T09:48:18;87448.47;;;6.33;53.08
21623;BME280;10973;46.706;12.340;2023-11-19T09:50:47;87442.53;;;6.36;53.95
21623;BME280;10973;46.706;12.340;2023-11-19T09:53:15;87437.38;;;6.39;53.08
21623;BME280;10973;46.706;12.340;2023-11-19T09:55:44;87439.09;;;6.51;52.53
21623;BME280;10973;46.706;12.340;2023-11-19T09:58:14;87429.09;;;6.57;51.65
21623;BME280;10973;46.706;12.340;2023-11-19T10:00:41;87414.97;;;6.61;51.32
21623;BME280;10973;46.706;12.340;2023-11-19T10:03:12;87419.16;;;6.66;50.99
21623;BME280;10973;46.706;12.340;2023-11-19T10:05:40;87423.38;;;6.70;51.21
21623;BME280;10973;46.706;12.340;2023-11-19T10:08:08;87414.47;;;6.75;51.91
21623;BME280;10973;46.706;12.340;2023-11-19T10:10:36;87419.03;;;6.78;51.74
21623;BME280;10973;46.706;12.340;2023-11-19T10:13:03;87418.81;;;6.86;51.54
21623;BME280;10973;46.706;12.340;2023-11-19T10:15:37;87415.09;;;6.87;51.43
21623;BME280;10973;46.706;12.340;2023-11-19T10:18:04;87401.59;;;6.85;51.74
21623;BME280;10973;46.706;12.340;2023-11-19T10:20:41;87397.53;;;6.88;51.86
21623;BME280;10973;46.706;12.340;2023-11-19T10:23:08;87391.94;;;6.89;51.69
21623;BME280;10973;46.706;12.340;2023-11-19T10:25:36;87383.38;;;6.92;51.51
21623;BME280;10973;46.706;12.340;2023-11-19T10:28:03;87388.28;;;6.94;51.01
21623;BME280;10973;46.706;12.340;2023-11-19T10:30:31;87377.03;;;6.93;51.92
21623;BME280;10973;46.706;12.340;2023-11-19T10:33:13;87388.69;;;6.96;51.70
21623;BME280;10973;46.706;12.340;2023-11-19T10:35:55;87369.19;;;6.93;52.17
21623;BME280;10973;46.706;12.340;2023-11-19T10:38:27;87373.72;;;6.96;52.92
21623;BME280;10973;46.706;12.340;2023-11-19T10:40:54;87381.09;;;6.91;53.24
21623;BME280;10973;46.706;12.340;2023-11-19T10:43:23;87371.09;;;6.96;52.13
21623;BME280;10973;46.706;12.340;2023-11-19T10:45:51;87375.66;;;6.99;51.54
21623;BME280;10973;46.706;12.340;2023-11-19T10:48:19;87372.84;;;7.11;51.68
21623;BME280;10973;46.706;12.340;2023-11-19T10:50:53;87361.72;;;7.18;52.03
21623;BME280;10973;46.706;12.340;2023-11-19T10:53:24;87369.66;;;7.22;52.38
21623;BME280;10973;46.706;12.340;2023-11-19T10:55:57;87366.63;;;7.19;53.02
21623;BME280;10973;46.706;12.340;2023-11-19T10:58:28;87351.31;;;7.22;52.54
21623;BME280;10973;46.706;12.340;2023-11-19T11:01:01;87364.81;;;7.24;52.45
21623;BME280;10973;46.706;12.340;2023-11-19T11:03:39;87341.59;;;7.22;52.87
21623;BME280;10973;46.706;12.340;2023-11-19T11:06:08;87341.25;;;7.24;53.10
21623;BME280;10973;46.706;12.340;2023-11-19T11:08:37;87348.41;;;7.27;53.39
21623;BME280;10973;46.706;12.340;2023-11-19T11:11:09;87352.19;;;7.29;53.78
21623;BME280;10973;46.706;12.340;2023-11-19T11:13:42;87348.44;;;7.30;54.03
21623;BME280;10973;46.706;12.340;2023-11-19T11:16:13;87354.16;;;7.36;53.84
21623;BME280;10973;46.706;12.340;2023-11-19T11:18:41;87354.69;;;7.45;54.01
21623;BME280;10973;46.706;12.340;2023-11-19T11:21:15;87346.16;;;7.51;53.89
21623;BME280;10973;46.706;12.340;2023-11-19T11:24:36;87333.09;;;7.55;53.52
21623;BME280;10973;46.706;12.340;2023-11-19T11:38:43;87327.41;;;8.31;52.66
21623;BME280;10973;46.706;12.340;2023-11-19T11:41:22;87331.88;;;8.64;51.13
21623;BME280;10973;46.706;12.340;2023-11-19T11:43:55;87325.09;;;8.96;50.74
21623;BME280;10973;46.706;12.340;2023-11-19T11:49:04;87325.25;;;10.16;48.76
21623;BME280;10973;46.706;12.340;2023-11-19T11:57:12;87313.56;;;11.17;45.16
21623;BME280;10973;46.706;12.340;2023-11-19T12:02:19;87297.13;;;10.30;46.52
21623;BME280;10973;46.706;12.340;2023-11-19T12:04:51;87305.53;;;9.92;47.61
21623;BME280;10973;46.706;12.340;2023-11-19T12:07:24;87309.13;;;9.63;48.12
21623;BME280;10973;46.706;12.340;2023-11-19T12:10:09;87304.78;;;9.33;48.76
21623;BME280;10973;46.706;12.340;2023-11-19T12:12:36;87302.66;;;9.06;49.54
21623;BME280;10973;46.706;12.340;2023-11-19T12:15:09;87303.56;;;8.84;50.02
21623;BME280;10973;46.706;12.340;2023-11-19T12:17:47;87296.97;;;8.60;50.50
21623;BME280;10973;46.706;12.340;2023-11-19T12:20:15;87305.75;;;8.41;50.97
21623;BME280;10973;46.706;12.340;2023-11-19T12:23:04;87307.78;;;8.25;51.43
21623;BME280;10973;46.706;12.340;2023-11-19T12:25:34;87303.81;;;8.09;51.81
21623;BME280;10973;46.706;12.340;2023-11-19T12:28:02;87300.28;;;7.94;52.38
21623;BME280;10973;46.706;12.340;2023-11-19T12:30:30;87303.03;;;7.75;53.52
21623;BME280;10973;46.706;12.340;2023-11-19T12:32:58;87301.47;;;7.70;53.70
21623;BME280;10973;46.706;12.340;2023-11-19T12:35:25;87296.47;;;7.62;53.92
21623;BME280;10973;46.706;12.340;2023-11-19T12:37:53;87289.28;;;7.55;54.12
21623;BME280;10973;46.706;12.340;2023-11-19T12:40:25;87278.41;;;7.53;54.35
21623;BME280;10973;46.706;12.340;2023-11-19T12:42:54;87278.69;;;7.48;54.42
21623;BME280;10973;46.706;12.340;2023-11-19T12:45:34;87267.00;;;7.42;54.87
21623;BME280;10973;46.706;12.340;2023-11-19T12:48:06;87260.97;;;7.38;54.97
21623;BME280;10973;46.706;12.340;2023-11-19T12:50:57;87260.09;;;7.31;55.43
21623;BME280;10973;46.706;12.340;2023-11-19T12:53:26;87260.75;;;7.24;55.57
21623;BME280;10973;46.706;12.340;2023-11-19T12:55:54;87248.34;;;7.21;55.41
21623;BME280;10973;46.706;12.340;2023-11-19T12:58:36;87253.88;;;7.16;55.67
21623;BME280;10973;46.706;12.340;2023-11-19T13:01:08;87245.50;;;7.07;56.07
21623;BME280;10973;46.706;12.340;2023-11-19T13:03:38;87246.28;;;7.07;55.96
21623;BME280;10973;46.706;12.340;2023-11-19T13:06:10;87248.09;;;7.03;56.33
21623;BME280;10973;46.706;12.340;2023-11-19T13:08:47;87249.56;;;7.01;56.34
21623;BME280;10973;46.706;12.340;2023-11-19T13:11:30;87252.88;;;6.98;56.78
21623;BME280;10973;46.706;12.340;2023-11-19T13:14:05;87252.09;;;6.97;56.75
21623;BME280;10973;46.706;12.340;2023-11-19T13:16:33;87236.38;;;6.97;56.88
21623;BME280;10973;46.706;12.340;2023-11-19T13:19:00;87245.38;;;6.96;56.92
21623;BME280;10973;46.706;12.340;2023-11-19T13:21:29;87237.50;;;6.96;56.90
21623;BME280;10973;46.706;12.340;2023-11-19T13:23:58;87234.13;;;6.96;57.19
21623;BME280;10973;46.706;12.340;2023-11-19T13:26:26;87236.75;;;6.96;57.04
21623;BME280;10973;46.706;12.340;2023-11-19T13:28:53;87238.59;;;6.95;57.08
21623;BME280;10973;46.706;12.340;2023-11-19T13:31:21;87225.81;;;6.90;56.98